Time;durP1;ratioP1;P1;durP2;ratioP2;P2;SDS_P1;SDS_P2;PMS_P1;PMS_P2;Temp;Humidity;BMP_temperature;BMP_pressure;BME280_temperature;BME280_humidity;BME280_pressure;Samples;Min_cycle;Max_cycle;Signal;HPM_P1;HPM_P2
2023/09/25 00:04:47;;;;;;;3.00;1.77;;;18.40;87.80;;;;;;10492992;28;20444;-68
2023/09/25 00:09:47;;;;;;;2.90;1.80;;;18.40;87.80;;;;;;10498391;28;20492;-68
2023/09/25 00:14:48;;;;;;;3.33;1.73;;;18.40;87.80;;;;;;10495266;28;20760;-68
2023/09/25 00:19:51;;;;;;;2.88;1.70;;;18.40;87.80;;;;;;10494664;28;20398;-68
2023/09/25 00:24:51;;;;;;;2.85;1.70;;;18.40;87.80;;;;;;10494088;28;20421;-68
2023/09/25 00:29:52;;;;;;;2.97;1.80;;;18.30;87.80;;;;;;10501389;28;20408;-69
2023/09/25 00:34:53;;;;;;;1.90;1.50;;;19.30;88.30;;;;;;10506417;28;20758;-68
2023/09/25 00:39:55;;;;;;;3.50;1.80;;;18.30;87.80;;;;;;10504615;28;20485;-68
2023/09/25 00:44:55;;;;;;;2.65;1.70;;;18.30;87.80;;;;;;10504609;28;20905;-68
2023/09/25 00:49:56;;;;;;;2.20;1.60;;;18.20;87.70;;;;;;10501997;28;20407;-69
2023/09/25 00:54:58;;;;;;;2.97;1.77;;;18.30;87.80;;;;;;10499993;28;20943;-68
2023/09/25 00:59:59;;;;;;;2.00;1.67;;;18.20;87.70;;;;;;10486835;28;20408;-67
2023/09/25 01:05:01;;;;;;;2.58;1.48;;;18.20;87.70;;;;;;10499436;28;20418;-69
2023/09/25 01:10:14;;;;;;;2.05;1.60;;;18.20;87.70;;;;;;10491947;28;20406;-67
2023/09/25 01:15:15;;;;;;;2.55;1.70;;;18.20;87.70;;;;;;10494842;28;20410;-67
2023/09/25 01:20:17;;;;;;;3.05;1.90;;;18.10;87.70;;;;;;10494483;28;20426;-67
2023/09/25 01:25:20;;;;;;;2.92;1.77;;;18.10;87.80;;;;;;10491980;28;20411;-68
2023/09/25 01:30:20;;;;;;;2.70;1.80;;;18.10;87.70;;;;;;10501695;28;20529;-67
2023/09/25 01:35:26;;;;;;;2.83;1.80;;;18.10;87.80;;;;;;10494918;28;20903;-68
2023/09/25 01:40:27;;;;;;;2.17;1.70;;;18.10;87.80;;;;;;10497345;28;20427;-68
2023/09/25 01:45:28;;;;;;;2.13;1.70;;;18.10;87.80;;;;;;10494689;28;20399;-68
2023/09/25 01:50:29;;;;;;;4.40;2.10;;;18.00;87.80;;;;;;10490293;28;20401;-68
2023/09/25 01:55:35;;;;;;;2.72;1.95;;;18.00;87.80;;;;;;10493538;28;20407;-68
2023/09/25 02:00:35;;;;;;;2.10;1.90;;;18.00;87.80;;;;;;10489660;28;20399;-68
2023/09/25 02:05:36;;;;;;;2.87;1.77;;;18.00;87.80;;;;;;10495766;28;20813;-69
2023/09/25 02:10:37;;;;;;;3.37;1.90;;;18.00;87.90;;;;;;10497055;28;20407;-69
2023/09/25 02:15:37;;;;;;;3.42;2.00;;;17.90;87.80;;;;;;10492985;28;21021;-67
2023/09/25 02:20:38;;;;;;;3.78;1.80;;;17.90;87.90;;;;;;10491761;28;20923;-68
2023/09/25 02:25:38;;;;;;;3.20;1.93;;;17.90;87.90;;;;;;10494487;28;20405;-69
2023/09/25 02:30:39;;;;;;;3.67;2.03;;;17.90;88.00;;;;;;10500417;28;20409;-68
2023/09/25 02:35:40;;;;;;;3.17;2.17;;;17.90;88.00;;;;;;10505173;28;20448;-68
2023/09/25 02:40:41;;;;;;;2.70;2.03;;;17.90;88.00;;;;;;10492339;28;20402;-69
2023/09/25 02:45:43;;;;;;;2.88;2.00;;;17.80;87.90;;;;;;10496851;28;20468;-68
2023/09/25 02:50:43;;;;;;;3.47;2.10;;;17.80;87.90;;;;;;10494960;28;20404;-68
2023/09/25 02:55:50;;;;;;;2.47;1.90;;;17.80;88.00;;;;;;10496420;28;20384;-68
2023/09/25 03:00:51;;;;;;;3.00;2.20;;;17.80;88.00;;;;;;10492920;28;20432;-68
2023/09/25 03:05:51;;;;;;;2.20;2.00;;;17.80;88.00;;;;;;10497211;28;20398;-67
2023/09/25 03:10:52;;;;;;;2.33;1.90;;;17.80;88.00;;;;;;10494753;28;20407;-68
2023/09/25 03:15:53;;;;;;;2.40;1.90;;;17.80;88.00;;;;;;10483991;28;20436;-68
2023/09/25 03:20:53;;;;;;;2.97;1.93;;;17.70;87.90;;;;;;10494809;28;20438;-68
2023/09/25 03:25:54;;;;;;;3.63;2.30;;;17.70;87.90;;;;;;10489629;28;20399;-68
2023/09/25 03:30:55;;;;;;;3.20;2.00;;;17.70;87.90;;;;;;10493197;28;20797;-69
2023/09/25 03:35:55;;;;;;;2.97;2.07;;;17.70;88.00;;;;;;10499630;28;20812;-69
2023/09/25 03:40:56;;;;;;;3.93;2.13;;;17.70;87.90;;;;;;10493568;28;20397;-69
2023/09/25 03:45:58;;;;;;;4.22;2.10;;;17.60;88.00;;;;;;10494819;28;20528;-68
2023/09/25 03:50:59;;;;;;;2.57;1.97;;;17.70;88.00;;;;;;10493798;28;20453;-68
2023/09/25 03:56:00;;;;;;;2.47;1.90;;;17.60;88.00;;;;;;10499238;28;20418;-67
2023/09/25 04:01:01;;;;;;;2.50;2.00;;;17.60;88.00;;;;;;10493201;28;20394;-68
2023/09/25 04:06:01;;;;;;;3.50;1.90;;;17.60;88.00;;;;;;10495710;28;20891;-69
2023/09/25 04:11:03;;;;;;;3.63;2.00;;;17.60;88.10;;;;;;10488052;28;20405;-67
2023/09/25 04:16:04;;;;;;;3.90;1.98;;;17.60;88.00;;;;;;10483699;28;20406;-69
2023/09/25 04:21:07;;;;;;;2.50;1.90;;;17.50;88.00;;;;;;10499304;28;20416;-69
2023/09/25 04:26:08;;;;;;;2.80;2.22;;;17.50;88.00;;;;;;10495732;28;20397;-68
2023/09/25 04:31:12;;;;;;;3.40;2.00;;;17.50;88.00;;;;;;10494502;28;20499;-67
2023/09/25 04:36:13;;;;;;;2.67;1.80;;;17.50;88.00;;;;;;10504430;28;20401;-68
2023/09/25 04:41:13;;;;;;;3.58;1.90;;;17.50;88.10;;;;;;10494500;28;20397;-68
2023/09/25 04:46:14;;;;;;;2.63;1.97;;;17.50;88.10;;;;;;10490980;28;20426;-68
2023/09/25 04:51:16;;;;;;;3.47;2.23;;;17.50;88.10;;;;;;10501077;28;20405;-68
2023/09/25 04:56:21;;;;;;;3.70;2.00;;;17.40;88.00;;;;;;10492366;28;20393;-68
2023/09/25 05:01:21;;;;;;;3.40;2.28;;;17.50;88.10;;;;;;10492344;28;20760;-68
2023/09/25 05:06:22;;;;;;;2.17;1.97;;;17.40;88.00;;;;;;10505507;28;20487;-69
2023/09/25 05:11:22;;;;;;;2.83;1.90;;;17.40;88.10;;;;;;10488698;28;20453;-68
2023/09/25 05:16:23;;;;;;;3.70;2.20;;;17.40;88.10;;;;;;10493085;28;21101;-68
2023/09/25 05:21:24;;;;;;;3.60;2.20;;;17.40;88.10;;;;;;10501595;28;20540;-68
2023/09/25 05:26:24;;;;;;;2.60;1.90;;;17.40;88.10;;;;;;10496947;28;20390;-69
2023/09/25 05:31:25;;;;;;;3.22;2.03;;;17.30;88.00;;;;;;10498335;28;20850;-68
2023/09/25 05:36:26;;;;;;;2.67;1.93;;;17.30;88.00;;;;;;10509382;28;20517;-68
2023/09/25 05:41:26;;;;;;;2.67;1.90;;;17.40;88.00;;;;;;10504244;28;20856;-69
2023/09/25 05:46:27;;;;;;;4.57;2.10;;;17.40;88.30;;;;;;10508926;28;20399;-69
2023/09/25 05:51:28;;;;;;;3.08;2.03;;;17.30;88.00;;;;;;10504153;28;20402;-69
2023/09/25 05:56:28;;;;;;;2.90;2.00;;;17.30;88.00;;;;;;10500850;28;21003;-67
2023/09/25 06:01:29;;;;;;;2.65;1.90;;;17.30;88.00;;;;;;10494310;28;20784;-67
2023/09/25 06:06:29;;;;;;;3.47;2.10;;;17.30;88.00;;;;;;10487262;28;20411;-68
2023/09/25 06:11:31;;;;;;;3.10;2.10;;;17.30;87.90;;;;;;10488503;28;20394;-71
2023/09/25 06:16:31;;;;;;;3.10;2.03;;;17.30;87.90;;;;;;10495253;28;20408;-71
2023/09/25 06:21:33;;;;;;;2.92;2.25;;;17.30;87.90;;;;;;10491392;28;20396;-68
2023/09/25 06:26:33;;;;;;;2.30;2.08;;;17.20;87.80;;;;;;10503386;28;20425;-69
2023/09/25 06:31:36;;;;;;;2.17;1.80;;;17.30;87.80;;;;;;10490849;28;20431;-68
2023/09/25 06:36:37;;;;;;;3.22;2.08;;;17.30;88.10;;;;;;10500888;28;20442;-68
2023/09/25 06:41:39;;;;;;;3.58;2.10;;;17.30;88.30;;;;;;10483517;28;20397;-69
2023/09/25 06:46:40;;;;;;;2.80;2.23;;;17.30;88.20;;;;;;10486460;28;20400;-69
2023/09/25 06:51:41;;;;;;;2.97;2.10;;;17.30;88.00;;;;;;10488006;28;20827;-70
2023/09/25 06:56:42;;;;;;;3.00;1.90;;;17.30;87.90;;;;;;10492159;28;20456;-68
2023/09/25 07:01:42;;;;;;;3.00;1.85;;;17.30;87.80;;;;;;10479495;28;20404;-70
2023/09/25 07:06:43;;;;;;;3.58;1.80;;;17.30;88.30;;;;;;10489200;28;20412;-69
2023/09/25 07:11:44;;;;;;;3.53;1.80;;;17.30;87.70;;;;;;10495199;28;20752;-70
2023/09/25 07:16:44;;;;;;;2.73;1.90;;;17.30;87.70;;;;;;10485948;28;20431;-70
2023/09/25 07:21:45;;;;;;;3.03;1.83;;;17.40;87.80;;;;;;10484681;28;20400;-70
2023/09/25 07:26:46;;;;;;;2.57;1.80;;;17.40;87.70;;;;;;10495452;28;20404;-69
2023/09/25 07:31:46;;;;;;;2.45;1.80;;;17.40;87.70;;;;;;10491845;28;20759;-69
2023/09/25 07:36:47;;;;;;;3.05;1.80;;;17.40;87.70;;;;;;10484648;28;20509;-69
2023/09/25 07:41:48;;;;;;;3.00;2.13;;;17.50;87.80;;;;;;10486961;28;20400;-68
2023/09/25 07:46:48;;;;;;;2.53;2.00;;;17.40;87.70;;;;;;10490169;28;20502;-69
2023/09/25 07:51:51;;;;;;;3.00;2.07;;;17.40;87.70;;;;;;10494785;28;20516;-73
2023/09/25 07:56:52;;;;;;;2.90;1.73;;;17.50;88.00;;;;;;10488361;28;20498;-72
2023/09/25 08:01:55;;;;;;;3.53;2.13;;;17.50;87.90;;;;;;10492633;28;20408;-73
2023/09/25 08:06:56;;;;;;;2.60;1.90;;;17.30;88.00;;;;;;10498964;28;20461;-72
2023/09/25 08:11:57;;;;;;;5.25;1.90;;;17.10;88.60;;;;;;10499131;28;20442;-73
2023/09/25 08:16:58;;;;;;;4.07;2.05;;;17.00;89.10;;;;;;10490286;28;20495;-72
2023/09/25 08:21:59;;;;;;;3.37;2.10;;;17.10;89.20;;;;;;10485895;28;20917;-70
2023/09/25 08:26:59;;;;;;;4.28;1.75;;;16.90;89.40;;;;;;10498916;28;20404;-70
2023/09/25 08:32:00;;;;;;;2.40;1.50;;;17.00;89.10;;;;;;10497322;28;20386;-70
2023/09/25 08:37:01;;;;;;;2.53;1.65;;;17.20;88.80;;;;;;10496155;28;20915;-70
2023/09/25 08:42:02;;;;;;;3.70;1.70;;;17.30;89.10;;;;;;10488349;28;20498;-70
2023/09/25 08:47:03;;;;;;;2.70;1.70;;;17.40;88.20;;;;;;10494871;28;20411;-70
2023/09/25 08:52:04;;;;;;;2.53;1.60;;;17.50;88.00;;;;;;10483436;28;20391;-70
2023/09/25 08:57:05;;;;;;;2.23;1.47;;;17.60;87.90;;;;;;10494358;28;21091;-70
2023/09/25 09:02:08;;;;;;;2.60;1.87;;;17.60;87.70;;;;;;10486401;28;21190;-70
2023/09/25 09:07:11;;;;;;;2.60;1.50;;;17.70;87.60;;;;;;10490728;28;20409;-70
2023/09/25 09:12:12;;;;;;;2.75;1.90;;;17.80;88.10;;;;;;10489268;28;20509;-74
2023/09/25 09:17:13;;;;;;;4.82;1.95;;;17.80;87.50;;;;;;10493573;28;20398;-74
2023/09/25 09:22:16;;;;;;;3.27;1.80;;;17.80;87.90;;;;;;10491340;28;20447;-75
2023/09/25 09:27:20;;;;;;;3.00;1.80;;;17.80;88.50;;;;;;10501290;28;20414;-74
2023/09/25 09:32:20;;;;;;;5.70;1.75;;;17.80;88.90;;;;;;10489395;28;20394;-73
2023/09/25 09:37:22;;;;;;;3.17;1.83;;;17.70;88.20;;;;;;10486280;28;20448;-73
2023/09/25 09:42:24;;;;;;;4.05;1.83;;;17.80;88.30;;;;;;10496163;28;20392;-73
2023/09/25 09:47:27;;;;;;;3.65;1.73;;;17.90;88.50;;;;;;10495215;28;20475;-73
2023/09/25 09:52:30;;;;;;;3.33;1.80;;;18.00;88.40;;;;;;10492335;28;20928;-73
2023/09/25 09:57:31;;;;;;;3.10;1.90;;;18.00;88.30;;;;;;10495358;28;20413;-74
2023/09/25 10:02:32;;;;;;;3.80;1.75;;;18.10;88.20;;;;;;10503884;28;20413;-73
2023/09/25 10:07:53;;;;;;;5.57;1.97;;;18.10;87.60;;;;;;10501350;28;20957;-74
2023/09/25 10:12:57;;;;;;;3.10;1.80;;;18.20;88.00;;;;;;10478561;28;20436;-73
2023/09/25 10:17:57;;;;;;;3.90;1.55;;;18.30;87.00;;;;;;10502677;28;20826;-73
2023/09/25 10:23:07;;;;;;;2.10;1.45;;;18.40;87.80;;;;;;10494100;28;20415;-73
2023/09/25 10:28:15;;;;;;;3.40;1.73;;;18.50;88.00;;;;;;10504073;28;20413;-72
2023/09/25 10:33:19;;;;;;;2.70;1.58;;;18.60;88.10;;;;;;10497561;28;20397;-72
2023/09/25 10:38:26;;;;;;;3.72;1.80;;;18.70;87.70;;;;;;10496248;28;20413;-73
2023/09/25 10:43:26;;;;;;;4.93;1.83;;;18.70;87.60;;;;;;10501233;28;20389;-73
2023/09/25 10:48:27;;;;;;;3.17;1.70;;;18.80;86.90;;;;;;10486769;28;20408;-73
2023/09/25 10:53:28;;;;;;;3.90;1.80;;;18.80;86.20;;;;;;10492844;28;21230;-72
2023/09/25 10:58:29;;;;;;;3.57;1.90;;;18.90;86.50;;;;;;10495575;28;20409;-73
2023/09/25 11:03:29;;;;;;;3.73;1.90;;;18.90;86.90;;;;;;10502783;28;20402;-74
2023/09/25 11:08:33;;;;;;;3.77;1.70;;;19.10;87.50;;;;;;10497833;28;20403;-72
2023/09/25 11:13:33;;;;;;;4.35;1.75;;;19.20;87.50;;;;;;10498755;28;20773;-74
2023/09/25 11:18:34;;;;;;;3.53;1.77;;;19.20;87.00;;;;;;10485923;28;20415;-74
2023/09/25 11:23:36;;;;;;;2.23;1.70;;;19.40;86.70;;;;;;10479467;28;20401;-74
2023/09/25 11:28:38;;;;;;;4.73;1.70;;;19.40;85.80;;;;;;10478929;28;20434;-70
2023/09/25 11:33:39;;;;;;;2.85;1.60;;;19.70;86.50;;;;;;10476094;28;20407;-69
2023/09/25 11:38:39;;;;;;;5.33;1.90;;;19.50;86.20;;;;;;10483936;28;20804;-72
2023/09/25 11:43:40;;;;;;;3.33;1.60;;;19.60;86.20;;;;;;10490058;28;20392;-72
2023/09/25 11:48:41;;;;;;;5.25;1.70;;;19.70;86.30;;;;;;10478084;28;20781;-72
2023/09/25 11:53:42;;;;;;;4.18;1.70;;;19.70;85.90;;;;;;10489150;28;20487;-73
2023/09/25 11:58:42;;;;;;;4.43;2.00;;;19.80;86.30;;;;;;10486567;28;20934;-73
2023/09/25 12:03:43;;;;;;;3.30;1.80;;;19.80;86.00;;;;;;10483905;28;20398;-73
2023/09/25 12:08:44;;;;;;;3.50;1.77;;;19.90;86.60;;;;;;10479499;28;20457;-73
2023/09/25 12:13:45;;;;;;;3.87;1.73;;;20.00;86.30;;;;;;10484230;28;21327;-73
2023/09/25 12:18:45;;;;;;;3.78;2.10;;;20.00;86.90;;;;;;10486418;28;20412;-77
2023/09/25 12:23:46;;;;;;;3.95;1.95;;;20.00;87.20;;;;;;10476659;28;21208;-73
2023/09/25 12:28:47;;;;;;;3.20;1.80;;;20.00;86.90;;;;;;10492089;28;20414;-73
2023/09/25 12:33:49;;;;;;;3.27;1.80;;;20.00;87.60;;;;;;10493183;28;20401;-73
2023/09/25 12:38:50;;;;;;;5.85;2.00;;;20.10;87.20;;;;;;10486455;28;20545;-72
2023/09/25 12:43:51;;;;;;;4.77;2.00;;;20.10;86.50;;;;;;10492263;28;20387;-73
2023/09/25 12:48:51;;;;;;;7.43;1.93;;;20.20;87.30;;;;;;10484879;28;20856;-73
2023/09/25 12:53:53;;;;;;;5.30;2.10;;;20.20;87.30;;;;;;10494060;28;20480;-73
2023/09/25 12:58:54;;;;;;;4.50;2.10;;;20.30;86.50;;;;;;10494948;28;20418;-74
2023/09/25 13:03:55;;;;;;;3.40;1.98;;;20.30;86.90;;;;;;10484545;28;20839;-72
2023/09/25 13:08:55;;;;;;;6.70;2.23;;;20.30;86.40;;;;;;10491941;28;20474;-73
2023/09/25 13:13:56;;;;;;;7.53;2.20;;;20.30;86.70;;;;;;10491871;28;20410;-74
2023/09/25 13:18:58;;;;;;;5.57;1.90;;;20.30;87.80;;;;;;10503380;28;20454;-71
2023/09/25 13:23:58;;;;;;;4.78;1.90;;;20.30;87.10;;;;;;10495906;28;20393;-72
2023/09/25 13:28:59;;;;;;;3.97;2.00;;;20.30;86.90;;;;;;10494294;28;20926;-72
2023/09/25 13:34:02;;;;;;;3.43;1.80;;;20.30;87.70;;;;;;10487968;28;20398;-72
2023/09/25 13:39:03;;;;;;;4.15;2.00;;;20.20;88.10;;;;;;10495967;28;20400;-72
2023/09/25 13:44:04;;;;;;;3.93;1.77;;;20.60;87.10;;;;;;10490607;28;20408;-72
2023/09/25 13:49:05;;;;;;;4.27;2.00;;;21.00;86.00;;;;;;10488925;28;20567;-72
2023/09/25 13:54:06;;;;;;;5.57;1.92;;;21.30;84.80;;;;;;10489920;28;20449;-72
2023/09/25 13:59:07;;;;;;;6.17;1.97;;;21.50;83.40;;;;;;10496157;28;20400;-71
2023/09/25 14:04:07;;;;;;;3.83;1.90;;;21.60;83.10;;;;;;10497880;28;20457;-72
2023/09/25 14:09:08;;;;;;;4.27;1.90;;;21.70;83.20;;;;;;10483878;28;20566;-70
2023/09/25 14:14:09;;;;;;;3.17;1.92;;;21.80;81.90;;;;;;10494951;28;20801;-70
2023/09/25 14:19:10;;;;;;;4.50;1.85;;;21.90;81.50;;;;;;10507950;28;20413;-69
2023/09/25 14:24:11;;;;;;;5.10;1.80;;;21.90;81.50;;;;;;10499829;28;20425;-69
2023/09/25 14:29:11;;;;;;;3.80;1.90;;;22.00;81.40;;;;;;10492223;28;20943;-69
2023/09/25 14:34:12;;;;;;;4.15;1.98;;;22.10;81.20;;;;;;10491873;28;20448;-69
2023/09/25 14:39:12;;;;;;;3.92;1.92;;;22.20;81.20;;;;;;10501122;28;20466;-69
2023/09/25 14:44:13;;;;;;;7.88;2.30;;;22.20;80.80;;;;;;10495154;28;20401;-69
2023/09/25 14:49:14;;;;;;;5.97;1.90;;;22.20;80.60;;;;;;10492092;28;20458;-69
2023/09/25 14:54:14;;;;;;;5.13;2.10;;;22.20;80.60;;;;;;10491612;28;20479;-70
2023/09/25 14:59:15;;;;;;;4.83;2.30;;;22.30;80.90;;;;;;10485366;28;20782;-69
2023/09/25 15:04:18;;;;;;;3.90;2.00;;;22.30;81.30;;;;;;10496903;28;20412;-68
2023/09/25 15:09:19;;;;;;;4.80;2.22;;;22.20;81.00;;;;;;10494026;28;20466;-69
2023/09/25 15:14:20;;;;;;;4.70;2.17;;;21.90;81.40;;;;;;10493129;28;20464;-71
2023/09/25 15:19:21;;;;;;;4.93;2.20;;;21.70;82.70;;;;;;10494426;28;20409;-69
2023/09/25 15:24:21;;;;;;;4.07;2.00;;;21.50;83.50;;;;;;10490533;28;20801;-68
2023/09/25 15:29:22;;;;;;;4.00;2.20;;;21.30;83.60;;;;;;10497294;28;20411;-70
2023/09/25 15:34:22;;;;;;;4.43;2.20;;;21.30;84.00;;;;;;10496046;28;20810;-69
2023/09/25 15:39:23;;;;;;;4.33;2.20;;;21.10;84.70;;;;;;10491174;28;20476;-69
2023/09/25 15:44:24;;;;;;;4.80;2.00;;;21.00;85.20;;;;;;10491462;28;20852;-68
2023/09/25 15:49:24;;;;;;;4.47;2.00;;;20.90;85.10;;;;;;10505481;28;20627;-70
2023/09/25 15:54:29;;;;;;;3.97;2.33;;;20.80;85.10;;;;;;10496357;28;20407;-70
2023/09/25 15:59:29;;;;;;;3.40;2.10;;;20.80;85.70;;;;;;10490468;28;20393;-70
2023/09/25 16:04:31;;;;;;;3.63;2.33;;;20.70;86.40;;;;;;10490611;28;20937;-72
2023/09/25 16:09:32;;;;;;;6.38;2.10;;;20.70;86.40;;;;;;10495959;28;20407;-71
2023/09/25 16:14:33;;;;;;;4.03;1.93;;;20.60;87.80;;;;;;10491627;28;20609;-69
2023/09/25 16:19:33;;;;;;;3.67;2.10;;;20.60;88.10;;;;;;10496684;28;20901;-71
2023/09/25 16:24:34;;;;;;;2.80;2.00;;;20.40;87.90;;;;;;10491760;28;21123;-69
2023/09/25 16:29:35;;;;;;;5.40;2.23;;;20.50;88.50;;;;;;10504811;28;20412;-67
2023/09/25 16:34:36;;;;;;;4.90;2.13;;;20.50;89.10;;;;;;10508969;28;20422;-67
2023/09/25 16:39:36;;;;;;;4.90;2.00;;;20.60;88.90;;;;;;10498858;28;20405;-67
2023/09/25 16:44:37;;;;;;;4.00;2.03;;;20.70;88.70;;;;;;10512290;28;20399;-67
2023/09/25 16:49:37;;;;;;;3.60;1.90;;;20.70;88.50;;;;;;10504800;28;20801;-67
2023/09/25 16:54:38;;;;;;;3.27;2.00;;;20.80;88.40;;;;;;10507285;28;20395;-67
2023/09/25 16:59:39;;;;;;;3.57;2.07;;;20.80;88.40;;;;;;10507595;28;20414;-67
2023/09/25 17:04:40;;;;;;;3.63;1.90;;;20.70;88.40;;;;;;10499024;28;20389;-67
2023/09/25 17:09:41;;;;;;;2.30;1.87;;;20.70;89.10;;;;;;10501022;28;20434;-68
2023/09/25 17:14:43;;;;;;;5.40;2.00;;;20.80;88.70;;;;;;10481571;28;20419;-67
2023/09/25 17:19:44;;;;;;;2.88;2.10;;;20.70;88.80;;;;;;10497138;28;20686;-68
2023/09/25 17:24:44;;;;;;;2.97;1.85;;;20.70;88.90;;;;;;10496046;28;20402;-68
2023/09/25 17:29:45;;;;;;;3.63;2.13;;;20.70;89.00;;;;;;10490746;28;20430;-67
2023/09/25 17:34:50;;;;;;;3.07;1.90;;;20.70;89.20;;;;;;10500191;28;20418;-67
2023/09/25 17:39:50;;;;;;;3.43;1.90;;;20.70;89.40;;;;;;10485899;28;20424;-67
2023/09/25 17:44:51;;;;;;;3.50;1.90;;;20.60;89.50;;;;;;10498208;28;20430;-67
2023/09/25 17:49:53;;;;;;;2.73;1.90;;;20.60;89.60;;;;;;10496824;28;20423;-67
2023/09/25 17:54:54;;;;;;;2.70;2.10;;;20.50;89.70;;;;;;10493467;28;20573;-67
2023/09/25 17:59:55;;;;;;;2.83;2.00;;;20.50;89.90;;;;;;10496507;28;20412;-67
2023/09/25 18:04:56;;;;;;;3.80;2.20;;;20.50;90.00;;;;;;10497969;28;20920;-67
2023/09/25 18:09:56;;;;;;;3.23;2.03;;;20.40;90.00;;;;;;10489883;28;20487;-67
2023/09/25 18:15:04;;;;;;;5.10;2.10;;;20.40;90.00;;;;;;10495223;28;20404;-67
2023/09/25 18:20:05;;;;;;;4.20;2.00;;;20.40;90.10;;;;;;10502140;28;20434;-67
2023/09/25 18:25:06;;;;;;;3.78;2.20;;;20.40;90.10;;;;;;10500890;28;20411;-67
2023/09/25 18:30:07;;;;;;;2.90;2.00;;;20.40;90.20;;;;;;10495889;28;21076;-68
2023/09/25 18:35:11;;;;;;;3.95;2.20;;;20.40;90.20;;;;;;10498500;28;20917;-68
2023/09/25 18:40:11;;;;;;;6.10;2.92;;;20.30;90.30;;;;;;10503364;28;20481;-71
2023/09/25 18:45:12;;;;;;;4.47;2.47;;;19.30;90.40;;;;;;10483525;28;20398;-68
2023/09/25 18:50:13;;;;;;;3.95;2.55;;;20.20;90.70;;;;;;10488196;28;20401;-69
2023/09/25 18:55:15;;;;;;;4.53;2.40;;;20.20;90.70;;;;;;10501084;28;20910;-66
2023/09/25 19:00:15;;;;;;;3.75;2.70;;;20.20;90.70;;;;;;10486267;28;20494;-66
2023/09/25 19:05:16;;;;;;;5.03;2.47;;;20.20;90.70;;;;;;10479324;28;20408;-66
2023/09/25 19:10:17;;;;;;;4.53;2.50;;;20.20;90.70;;;;;;10481472;28;20406;-66
2023/09/25 19:15:19;;;;;;;2.90;2.27;;;20.20;90.70;;;;;;10488657;28;20477;-67
2023/09/25 19:20:20;;;;;;;4.95;2.67;;;20.20;90.80;;;;;;10494363;28;20442;-66
2023/09/25 19:25:20;;;;;;;3.83;2.38;;;20.10;90.70;;;;;;10489733;28;20390;-66
2023/09/25 19:30:21;;;;;;;3.28;2.20;;;20.10;90.80;;;;;;10487031;28;20406;-67
2023/09/25 19:35:22;;;;;;;3.60;2.28;;;20.10;90.80;;;;;;10494810;28;20406;-66
2023/09/25 19:40:23;;;;;;;4.20;2.45;;;20.10;90.80;;;;;;10469178;28;20441;-66
2023/09/25 19:45:24;;;;;;;3.83;2.83;;;20.10;90.90;;;;;;10483529;28;20482;-66
2023/09/25 19:50:24;;;;;;;4.38;2.80;;;20.00;91.30;;;;;;10479483;28;20413;-66
2023/09/25 19:55:25;;;;;;;5.90;2.60;;;20.00;91.20;;;;;;10482499;28;20383;-66
2023/09/25 20:00:26;;;;;;;3.73;2.50;;;20.00;91.30;;;;;;10491017;28;20396;-66
2023/09/25 20:05:28;;;;;;;3.87;2.67;;;20.00;91.30;;;;;;10486792;28;20393;-66
2023/09/25 20:10:29;;;;;;;4.37;2.67;;;20.00;91.30;;;;;;10492907;28;20421;-66
2023/09/25 20:15:30;;;;;;;4.83;2.70;;;20.00;91.30;;;;;;10473111;28;20401;-66
2023/09/25 20:20:30;;;;;;;5.82;2.60;;;20.00;91.30;;;;;;10484840;28;20409;-66
2023/09/25 20:25:31;;;;;;;3.65;2.67;;;19.90;91.30;;;;;;10488660;28;20404;-66
2023/09/25 20:30:32;;;;;;;3.65;2.45;;;19.90;91.40;;;;;;10485011;28;20411;-66
2023/09/25 20:35:33;;;;;;;3.42;2.80;;;19.90;91.40;;;;;;10490119;28;20408;-66
2023/09/25 20:40:34;;;;;;;3.60;2.60;;;19.90;91.40;;;;;;10494942;28;20401;-66
2023/09/25 20:45:35;;;;;;;4.20;3.10;;;19.90;91.40;;;;;;10491012;28;20405;-66
2023/09/25 20:50:35;;;;;;;3.43;2.80;;;19.90;91.50;;;;;;10484145;28;20564;-66
2023/09/25 20:55:36;;;;;;;3.87;3.00;;;19.90;91.50;;;;;;10484061;28;20452;-66
2023/09/25 21:00:37;;;;;;;4.30;2.80;;;19.90;91.60;;;;;;10487027;28;20411;-66
2023/09/25 21:05:37;;;;;;;3.93;2.80;;;19.90;91.60;;;;;;10487115;28;20403;-66
2023/09/25 21:10:38;;;;;;;3.77;2.97;;;19.80;91.60;;;;;;10481101;28;20426;-66
2023/09/25 21:15:38;;;;;;;4.33;3.10;;;19.80;91.70;;;;;;10502374;28;20450;-66
2023/09/25 21:20:39;;;;;;;4.57;2.90;;;19.80;91.70;;;;;;10495796;28;20857;-66
2023/09/25 21:25:41;;;;;;;4.37;2.90;;;19.80;91.70;;;;;;10496030;28;20398;-66
2023/09/25 21:30:42;;;;;;;4.35;3.10;;;19.80;91.70;;;;;;10498124;28;20481;-66
2023/09/25 21:35:44;;;;;;;4.32;2.90;;;19.80;91.80;;;;;;10497642;28;20406;-66
2023/09/25 21:40:45;;;;;;;4.22;2.95;;;19.80;91.80;;;;;;10492475;28;21061;-66
2023/09/25 21:45:46;;;;;;;4.22;2.97;;;19.80;91.80;;;;;;10496334;28;20407;-67
2023/09/25 21:51:01;;;;;;;5.00;3.20;;;19.80;91.80;;;;;;10492486;28;20434;-66
2023/09/25 21:56:03;;;;;;;4.78;3.00;;;19.80;91.80;;;;;;10488469;28;20395;-66
2023/09/25 22:01:04;;;;;;;3.70;3.10;;;19.70;91.80;;;;;;10475947;28;20759;-66
2023/09/25 22:06:05;;;;;;;3.80;3.15;;;19.70;91.80;;;;;;10489377;28;20829;-66
2023/09/25 22:11:06;;;;;;;4.40;3.33;;;19.70;91.90;;;;;;10488234;28;20405;-66
2023/09/25 22:16:08;;;;;;;3.70;3.10;;;19.70;91.90;;;;;;10482194;28;20397;-66
2023/09/25 22:21:15;;;;;;;4.60;3.10;;;19.70;91.90;;;;;;10491376;28;20944;-66
2023/09/25 22:26:15;;;;;;;5.90;3.70;;;19.70;92.00;;;;;;10489907;28;20403;-66
2023/09/25 22:31:18;;;;;;;4.40;3.30;;;19.70;92.00;;;;;;10495775;28;20412;-66
2023/09/25 22:36:19;;;;;;;3.90;3.25;;;19.60;92.00;;;;;;10482561;28;20411;-66
2023/09/25 22:41:21;;;;;;;5.63;3.17;;;19.70;92.10;;;;;;10492404;28;20817;-66
2023/09/25 22:46:22;;;;;;;5.10;3.70;;;19.60;92.10;;;;;;10487588;28;20491;-66
2023/09/25 22:51:23;;;;;;;6.30;3.60;;;19.60;92.10;;;;;;10490098;28;20946;-66
2023/09/25 22:56:24;;;;;;;5.40;3.50;;;19.60;92.40;;;;;;10493913;28;20399;-66
2023/09/25 23:01:24;;;;;;;5.17;3.80;;;19.60;92.20;;;;;;10488914;28;20576;-66
2023/09/25 23:06:26;;;;;;;5.80;4.13;;;19.60;92.20;;;;;;10498611;28;20407;-66
2023/09/25 23:11:26;;;;;;;4.82;3.10;;;19.60;92.30;;;;;;10491232;28;20457;-66
2023/09/25 23:16:27;;;;;;;5.90;3.80;;;19.60;92.30;;;;;;10493979;28;20806;-66
2023/09/25 23:21:28;;;;;;;4.60;3.50;;;19.60;92.30;;;;;;10498549;28;20403;-66
2023/09/25 23:26:28;;;;;;;4.93;3.47;;;19.60;92.30;;;;;;10499233;28;20456;-66
2023/09/25 23:31:29;;;;;;;4.53;3.40;;;19.60;92.60;;;;;;10495371;28;20412;-66
2023/09/25 23:36:30;;;;;;;4.88;3.55;;;19.50;92.30;;;;;;10489399;28;20396;-66
2023/09/25 23:41:31;;;;;;;4.85;3.65;;;19.50;92.30;;;;;;10493509;28;20408;-66
2023/09/25 23:46:32;;;;;;;4.00;3.37;;;19.50;92.40;;;;;;10490193;28;20391;-66
2023/09/25 23:51:32;;;;;;;6.43;3.70;;;19.50;92.40;;;;;;10494423;28;20429;-66
2023/09/25 23:56:35;;;;;;;4.27;3.43;;;19.50;92.40;;;;;;10490546;28;20453;-66
